createdAt,value
2017-09-23T00:00:46.090Z,14.00
2017-09-23T00:03:13.601Z,14.00
2017-09-23T00:05:41.110Z,13.90
2017-09-23T00:08:08.606Z,13.90
2017-09-23T00:10:36.889Z,13.70
2017-09-23T00:13:04.397Z,13.70
2017-09-23T00:15:32.001Z,13.60
2017-09-23T00:17:59.500Z,13.50
2017-09-23T00:20:27.777Z,13.40
2017-09-23T00:22:55.270Z,13.40
2017-09-23T00:25:22.783Z,13.40
2017-09-23T00:27:50.283Z,13.40
2017-09-23T00:30:18.564Z,13.20
2017-09-23T00:32:46.062Z,13.20
2017-09-23T00:35:13.575Z,13.20
2017-09-23T00:37:41.102Z,13.20
2017-09-23T00:40:08.669Z,13.20
2017-09-23T00:42:36.186Z,13.20
2017-09-23T00:45:03.693Z,13.20
2017-09-23T00:47:31.210Z,13.20
2017-09-23T00:49:58.826Z,13.20
2017-09-23T00:52:26.369Z,13.20
2017-09-23T00:54:53.885Z,13.20
2017-09-23T00:57:22.174Z,13.30
2017-09-23T00:59:49.689Z,13.30
2017-09-23T01:02:17.975Z,13.40
2017-09-23T01:04:45.493Z,13.30
2017-09-23T01:07:13.754Z,13.40
2017-09-23T01:09:42.150Z,13.50
2017-09-23T01:12:09.670Z,13.50
2017-09-23T01:14:37.933Z,13.60
2017-09-23T01:17:06.217Z,13.60
2017-09-23T01:19:33.710Z,13.60
2017-09-23T01:22:01.238Z,13.70
2017-09-23T01:24:30.245Z,13.70
2017-09-23T01:26:58.541Z,13.80
2017-09-23T01:29:26.098Z,13.80
2017-09-23T01:31:53.625Z,13.80
2017-09-23T01:34:21.116Z,13.80
2017-09-23T01:36:49.393Z,13.90
2017-09-23T01:39:16.974Z,13.80
2017-09-23T01:41:44.497Z,13.90
2017-09-23T01:44:12.757Z,13.90
2017-09-23T01:46:41.037Z,13.90
2017-09-23T01:49:08.540Z,13.90
2017-09-23T01:51:36.036Z,13.90
2017-09-23T01:54:03.549Z,14.00
2017-09-23T01:56:31.826Z,14.00
2017-09-23T01:58:59.335Z,14.00
2017-09-23T02:01:26.829Z,14.10
2017-09-23T02:03:54.343Z,14.10
2017-09-23T02:06:22.609Z,14.10
2017-09-23T02:08:50.116Z,14.10
2017-09-23T02:11:17.618Z,14.10
2017-09-23T02:13:45.138Z,14.00
2017-09-23T02:16:12.694Z,14.10
2017-09-23T02:18:40.200Z,14.10
2017-09-23T02:21:07.794Z,14.10
2017-09-23T02:23:36.145Z,14.10
2017-09-23T02:26:03.657Z,14.10
2017-09-23T02:28:31.922Z,14.00
2017-09-23T02:31:00.195Z,14.00
2017-09-23T02:33:27.690Z,13.90
2017-09-23T02:35:55.205Z,13.90
2017-09-23T02:38:22.702Z,13.90
2017-09-23T02:40:50.281Z,13.90
2017-09-23T02:43:17.833Z,13.80
2017-09-23T02:45:45.370Z,13.80
2017-09-23T02:48:12.869Z,13.80
2017-09-23T02:50:40.369Z,13.80
2017-09-23T02:53:07.902Z,13.80
2017-09-23T02:55:35.401Z,13.80
2017-09-23T02:58:02.990Z,13.70
2017-09-23T03:00:30.494Z,13.70
2017-09-23T03:02:58.781Z,13.70
2017-09-23T03:05:26.333Z,13.70
2017-09-23T03:07:53.881Z,13.60
2017-09-23T03:10:21.431Z,13.70
2017-09-23T03:12:48.934Z,13.60
2017-09-23T03:15:17.232Z,13.50
2017-09-23T03:17:44.878Z,13.50
2017-09-23T03:20:12.386Z,13.50
2017-09-23T03:22:40.648Z,13.40
2017-09-23T03:25:08.933Z,13.40
2017-09-23T03:27:36.448Z,13.40
2017-09-23T03:30:04.152Z,13.40
2017-09-23T03:32:31.673Z,13.40
2017-09-23T03:34:59.201Z,13.40
2017-09-23T03:37:27.460Z,13.30
2017-09-23T03:39:55.718Z,13.30
2017-09-23T03:42:24.002Z,13.30
2017-09-23T03:44:51.509Z,13.30
2017-09-23T03:47:19.081Z,13.30
2017-09-23T03:49:46.583Z,13.30
2017-09-23T03:52:14.862Z,13.40
2017-09-23T03:54:43.175Z,13.30
2017-09-23T03:57:10.716Z,13.30
2017-09-23T03:59:38.250Z,13.40
2017-09-23T04:02:05.785Z,13.30
2017-09-23T04:04:33.353Z,13.40
2017-09-23T04:07:00.853Z,13.40
2017-09-23T04:09:29.134Z,13.40
2017-09-23T04:11:56.681Z,13.30
2017-09-23T04:14:24.223Z,13.40
2017-09-23T04:16:51.725Z,13.40
2017-09-23T04:19:19.240Z,13.40
2017-09-23T04:21:46.733Z,13.40
2017-09-23T04:24:15.014Z,13.40
2017-09-23T04:26:42.514Z,13.40
2017-09-23T04:29:10.044Z,13.40
2017-09-23T04:31:37.547Z,13.30
2017-09-23T04:34:05.089Z,13.30
2017-09-23T04:36:32.614Z,13.40
2017-09-23T04:39:00.133Z,13.40
2017-09-23T04:41:27.644Z,13.40
2017-09-23T04:43:55.133Z,13.40
2017-09-23T04:46:23.407Z,13.40
2017-09-23T04:48:51.669Z,13.30
2017-09-23T04:51:19.180Z,13.30
2017-09-23T04:53:46.771Z,13.30
2017-09-23T04:56:14.318Z,13.30
2017-09-23T04:58:41.820Z,13.30
2017-09-23T05:01:09.406Z,13.20
2017-09-23T05:03:36.962Z,13.20
2017-09-23T05:06:04.449Z,13.30
2017-09-23T05:08:31.965Z,13.20
2017-09-23T05:10:59.469Z,13.10
2017-09-23T05:13:26.977Z,13.10
2017-09-23T05:15:54.568Z,13.10
2017-09-23T05:18:22.115Z,13.10
2017-09-23T05:20:49.653Z,13.10
2017-09-23T05:23:17.206Z,13.20
2017-09-23T05:25:44.709Z,13.20
2017-09-23T05:28:13.016Z,13.20
2017-09-23T05:30:40.545Z,13.20
2017-09-23T05:33:08.045Z,13.20
2017-09-23T05:35:35.569Z,13.20
2017-09-23T05:38:03.061Z,13.30
2017-09-23T05:40:30.641Z,13.20
2017-09-23T05:42:58.141Z,13.20
2017-09-23T05:45:26.425Z,13.20
2017-09-23T05:47:53.923Z,13.20
2017-09-23T05:50:22.966Z,13.20
2017-09-23T05:52:50.465Z,13.20
2017-09-23T05:55:18.737Z,13.30
2017-09-23T05:57:46.242Z,13.20
2017-09-23T06:00:13.754Z,13.20
2017-09-23T06:02:41.249Z,13.30
2017-09-23T06:05:09.541Z,13.30
2017-09-23T06:07:37.042Z,13.30
2017-09-23T06:10:04.628Z,13.30
2017-09-23T06:12:32.172Z,13.40
2017-09-23T06:14:59.670Z,13.40
2017-09-23T06:17:27.179Z,13.30
2017-09-23T06:19:54.672Z,13.40
2017-09-23T06:22:22.954Z,13.30
2017-09-23T06:24:50.449Z,13.30
2017-09-23T06:27:17.960Z,13.30
2017-09-23T06:29:45.455Z,13.40
2017-09-23T06:32:13.741Z,13.50
2017-09-23T06:34:41.248Z,13.40
2017-09-23T06:37:10.270Z,14.00
2017-09-23T06:39:37.841Z,14.00
2017-09-23T06:42:05.361Z,14.40
2017-09-23T06:44:32.852Z,14.70
2017-09-23T06:47:00.344Z,14.60
2017-09-23T06:49:27.860Z,14.50
2017-09-23T06:51:56.117Z,14.80
2017-09-23T06:54:23.689Z,14.80
2017-09-23T06:56:51.177Z,14.90
2017-09-23T06:59:18.680Z,15.00
2017-09-23T07:01:46.186Z,15.10
2017-09-23T07:04:13.689Z,15.30
2017-09-23T07:06:41.210Z,15.30
2017-09-23T07:09:08.717Z,15.40
2017-09-23T07:11:36.220Z,15.40
2017-09-23T07:14:03.729Z,15.50
2017-09-23T07:16:31.228Z,15.30
2017-09-23T07:18:58.760Z,15.40
2017-09-23T07:21:26.253Z,15.90
2017-09-23T07:23:54.509Z,17.30
2017-09-23T07:26:22.781Z,17.80
2017-09-23T07:28:50.276Z,17.80
2017-09-23T07:31:17.794Z,18.20
2017-09-23T07:33:45.297Z,18.80
2017-09-23T07:36:12.861Z,18.70
2017-09-23T07:38:40.353Z,19.00
2017-09-23T07:41:07.958Z,19.00
2017-09-23T07:43:35.453Z,19.60
2017-09-23T07:46:03.042Z,18.60
2017-09-23T07:48:30.536Z,18.30
2017-09-23T07:50:58.025Z,18.00
2017-09-23T07:53:25.565Z,17.50
2017-09-23T07:55:53.058Z,17.50
2017-09-23T07:58:20.625Z,16.90
2017-09-23T08:00:48.917Z,17.00
2017-09-23T08:03:16.434Z,16.90
2017-09-23T08:05:44.746Z,16.50
2017-09-23T08:08:12.261Z,16.50
2017-09-23T08:10:39.754Z,16.50
2017-09-23T08:13:07.257Z,16.30
2017-09-23T08:15:34.753Z,16.50
2017-09-23T08:18:02.265Z,16.40
2017-09-23T08:20:29.757Z,16.20
2017-09-23T08:22:58.042Z,16.10
2017-09-23T08:25:25.542Z,16.10
2017-09-23T08:27:53.071Z,16.00
2017-09-23T08:30:20.568Z,15.90
2017-09-23T08:32:48.069Z,15.80
2017-09-23T08:35:15.586Z,15.80
2017-09-23T08:37:43.855Z,15.80
2017-09-23T08:40:12.147Z,16.00
2017-09-23T08:42:39.641Z,16.00
2017-09-23T08:45:07.156Z,15.90
2017-09-23T08:47:34.656Z,16.20
2017-09-23T08:50:02.173Z,16.20
2017-09-23T08:52:29.673Z,16.20
2017-09-23T08:54:57.178Z,16.30
2017-09-23T08:57:24.677Z,16.20
2017-09-23T08:59:52.198Z,16.40
2017-09-23T09:02:19.721Z,16.40
2017-09-23T09:04:47.229Z,16.30
2017-09-23T09:07:14.726Z,16.40
2017-09-23T09:09:42.240Z,16.60
2017-09-23T09:12:09.737Z,16.80
2017-09-23T09:14:37.230Z,16.90
2017-09-23T09:17:04.745Z,17.10
2017-09-23T09:19:32.238Z,17.30
2017-09-23T09:21:59.751Z,17.50
2017-09-23T09:24:27.250Z,18.00
2017-09-23T09:26:54.761Z,18.40
2017-09-23T09:29:22.253Z,18.70
2017-09-23T09:31:49.769Z,19.30
2017-09-23T09:34:17.270Z,19.50
2017-09-23T09:36:44.825Z,20.00
2017-09-23T09:39:12.321Z,20.20
2017-09-23T09:41:39.824Z,19.90
2017-09-23T09:44:07.313Z,19.70
2017-09-23T09:46:34.825Z,19.50
2017-09-23T09:49:02.401Z,19.20
2017-09-23T09:51:29.904Z,18.70
2017-09-23T09:53:58.166Z,18.20
2017-09-23T09:56:26.450Z,18.20
2017-09-23T09:58:53.986Z,18.20
2017-09-23T10:01:21.544Z,18.00
2017-09-23T10:03:49.056Z,18.40
2017-09-23T10:06:17.332Z,18.10
2017-09-23T10:08:44.844Z,18.10
2017-09-23T10:11:12.342Z,18.30
2017-09-23T10:13:39.855Z,18.80
2017-09-23T10:16:07.349Z,18.90
2017-09-23T10:18:35.725Z,19.00
2017-09-23T10:21:03.217Z,19.00
2017-09-23T10:23:30.733Z,18.90
2017-09-23T10:25:58.230Z,18.60
2017-09-23T10:28:25.757Z,18.60
2017-09-23T10:30:54.045Z,18.90
2017-09-23T10:33:21.542Z,18.90
2017-09-23T10:35:49.155Z,19.20
2017-09-23T10:38:16.649Z,19.60
2017-09-23T10:40:44.942Z,19.40
2017-09-23T10:43:12.441Z,19.40
2017-09-23T10:45:39.950Z,19.10
2017-09-23T10:48:07.493Z,19.10
2017-09-23T10:50:35.001Z,19.30
2017-09-23T10:53:02.497Z,19.90
2017-09-23T10:55:30.013Z,19.80
2017-09-23T10:57:57.506Z,20.20
2017-09-23T11:00:25.033Z,20.60
2017-09-23T11:02:52.527Z,21.00
2017-09-23T11:05:20.016Z,21.00
2017-09-23T11:07:47.525Z,20.90
2017-09-23T11:10:15.057Z,20.60
2017-09-23T11:12:42.606Z,20.70
2017-09-23T11:15:10.097Z,20.90
2017-09-23T11:17:37.689Z,20.60
2017-09-23T11:20:05.186Z,20.40
2017-09-23T11:22:32.710Z,20.70
2017-09-23T11:25:00.198Z,20.60
2017-09-23T11:27:28.456Z,20.00
2017-09-23T11:29:56.730Z,20.10
2017-09-23T11:32:24.225Z,20.10
2017-09-23T11:34:51.848Z,19.90
2017-09-23T11:37:19.370Z,19.50
2017-09-23T11:39:46.918Z,19.50
2017-09-23T11:42:14.409Z,19.60
2017-09-23T11:44:42.024Z,19.80
2017-09-23T11:47:09.529Z,19.70
2017-09-23T11:49:37.908Z,19.40
2017-09-23T11:52:05.401Z,19.40
2017-09-23T11:54:33.022Z,19.60
2017-09-23T11:57:00.516Z,19.40
2017-09-23T11:59:28.806Z,19.70
2017-09-23T12:01:56.301Z,19.70
2017-09-23T12:04:23.889Z,19.90
2017-09-23T12:06:51.436Z,20.30
2017-09-23T12:09:18.978Z,19.60
2017-09-23T12:11:46.531Z,19.70
2017-09-23T12:14:14.272Z,19.90
2017-09-23T12:16:41.786Z,19.70
2017-09-23T12:19:10.049Z,20.10
2017-09-23T12:21:38.327Z,19.80
2017-09-23T12:24:05.885Z,19.80
2017-09-23T12:26:33.436Z,19.70
2017-09-23T12:29:01.040Z,20.10
2017-09-23T12:31:29.535Z,20.50
2017-09-23T12:33:57.049Z,20.50
2017-09-23T12:36:24.635Z,19.40
2017-09-23T12:38:52.191Z,19.90
2017-09-23T12:41:19.681Z,20.40
2017-09-23T12:43:47.962Z,20.70
2017-09-23T12:46:15.453Z,20.70
2017-09-23T12:48:43.057Z,20.60
2017-09-23T12:51:10.550Z,20.60
2017-09-23T12:53:38.062Z,20.90
2017-09-23T12:56:05.558Z,21.00
2017-09-23T12:58:33.838Z,21.10
2017-09-23T13:01:01.338Z,21.10
2017-09-23T13:03:28.944Z,21.30
2017-09-23T13:05:56.436Z,20.80
2017-09-23T13:08:23.950Z,21.20
2017-09-23T13:10:51.438Z,21.30
2017-09-23T13:13:19.734Z,21.00
2017-09-23T13:15:47.229Z,21.00
2017-09-23T13:18:14.729Z,21.10
2017-09-23T13:20:42.237Z,20.90
2017-09-23T13:23:10.537Z,20.00
2017-09-23T13:25:38.069Z,20.00
2017-09-23T13:28:05.610Z,20.10
2017-09-23T13:30:33.150Z,19.80
2017-09-23T13:33:00.651Z,19.80
2017-09-23T13:35:28.166Z,19.90
2017-09-23T13:37:55.658Z,19.80
2017-09-23T13:40:23.942Z,19.70
2017-09-23T13:42:51.441Z,19.70
2017-09-23T13:45:19.034Z,19.90
2017-09-23T13:47:46.819Z,19.80
2017-09-23T13:50:14.322Z,20.20
2017-09-23T13:52:41.832Z,20.10
2017-09-23T13:55:09.330Z,20.30
2017-09-23T13:57:36.857Z,20.20
2017-09-23T14:00:04.352Z,20.10
2017-09-23T14:02:31.941Z,20.30
2017-09-23T14:04:59.432Z,20.30
2017-09-23T14:07:27.086Z,20.40
2017-09-23T14:09:54.697Z,20.50
2017-09-23T14:12:23.053Z,20.50
2017-09-23T14:14:50.546Z,20.40
2017-09-23T14:17:18.125Z,20.40
2017-09-23T14:19:45.673Z,20.40
2017-09-23T14:22:13.173Z,20.10
2017-09-23T14:24:40.756Z,20.30
2017-09-23T14:27:08.246Z,20.10
2017-09-23T14:29:35.753Z,20.50
2017-09-23T14:32:03.286Z,20.60
2017-09-23T14:34:30.794Z,20.20
2017-09-23T14:36:58.285Z,20.30
2017-09-23T14:39:25.821Z,20.30
2017-09-23T14:41:53.314Z,20.20
2017-09-23T14:44:21.030Z,20.00
2017-09-23T14:46:48.657Z,20.40
2017-09-23T14:49:16.270Z,20.40
2017-09-23T14:51:43.840Z,20.40
2017-09-23T14:54:11.423Z,20.50
2017-09-23T14:56:39.838Z,20.40
2017-09-23T14:59:08.142Z,20.60
2017-09-23T15:01:35.749Z,20.50
2017-09-23T15:04:04.103Z,20.50
2017-09-23T15:06:32.447Z,20.40
2017-09-23T15:09:00.275Z,20.40
2017-09-23T15:11:27.922Z,20.40
2017-09-23T15:13:55.595Z,20.50
2017-09-23T15:16:23.198Z,20.60
2017-09-23T15:18:50.742Z,20.60
2017-09-23T15:21:18.262Z,20.60
2017-09-23T15:23:45.811Z,20.60
2017-09-23T15:26:13.327Z,20.50
2017-09-23T15:28:41.588Z,20.60
2017-09-23T15:31:09.844Z,20.50
2017-09-23T15:33:38.133Z,20.40
2017-09-23T15:36:05.679Z,20.40
2017-09-23T15:38:33.193Z,20.10
2017-09-23T15:41:01.457Z,20.00
2017-09-23T15:43:29.736Z,19.80
2017-09-23T15:45:57.239Z,19.80
2017-09-23T15:48:24.753Z,19.90
2017-09-23T15:50:52.273Z,19.80
2017-09-23T15:53:19.785Z,19.60
2017-09-23T15:55:48.082Z,19.60
2017-09-23T15:58:15.607Z,19.60
2017-09-23T16:00:43.870Z,19.50
2017-09-23T16:03:11.450Z,19.50
2017-09-23T16:05:38.942Z,19.40
2017-09-23T16:08:07.217Z,19.30
2017-09-23T16:10:35.823Z,19.20
2017-09-23T16:13:03.777Z,19.20
2017-09-23T16:15:31.321Z,19.10
2017-09-23T16:17:58.845Z,19.00
2017-09-23T16:20:26.349Z,18.90
2017-09-23T16:22:53.849Z,18.80
2017-09-23T16:25:21.357Z,18.70
2017-09-23T16:27:48.857Z,18.70
2017-09-23T16:30:16.367Z,18.70
2017-09-23T16:32:43.865Z,18.60
2017-09-23T16:35:11.401Z,18.50
2017-09-23T16:37:38.897Z,18.40
2017-09-23T16:40:06.434Z,18.40
2017-09-23T16:42:33.973Z,18.40
2017-09-23T16:45:01.474Z,18.30
2017-09-23T16:47:29.057Z,18.20
2017-09-23T16:49:56.549Z,18.20
2017-09-23T16:52:24.057Z,18.20
2017-09-23T16:54:51.553Z,18.10
2017-09-23T16:57:19.138Z,18.00
2017-09-23T16:59:46.641Z,18.00
2017-09-23T17:02:14.328Z,17.90
2017-09-23T17:04:41.825Z,17.90
2017-09-23T17:07:09.409Z,17.70
2017-09-23T17:09:36.953Z,17.60
2017-09-23T17:12:04.505Z,17.50
2017-09-23T17:14:32.008Z,17.40
2017-09-23T17:16:59.589Z,17.20
2017-09-23T17:19:27.080Z,17.20
2017-09-23T17:21:54.673Z,17.10
2017-09-23T17:24:22.230Z,17.00
2017-09-23T17:26:49.729Z,17.00
2017-09-23T17:29:17.245Z,16.90
2017-09-23T17:31:44.749Z,16.80
2017-09-23T17:34:12.293Z,16.70
2017-09-23T17:36:39.789Z,16.60
2017-09-23T17:39:07.382Z,16.50
2017-09-23T17:41:34.934Z,16.50
2017-09-23T17:44:02.473Z,16.40
2017-09-23T17:46:30.047Z,16.40
2017-09-23T17:48:57.541Z,16.20
2017-09-23T17:51:25.797Z,16.10
2017-09-23T17:53:54.074Z,16.10
2017-09-23T17:56:21.564Z,16.00
2017-09-23T17:58:49.089Z,16.10
2017-09-23T18:01:16.609Z,16.00
2017-09-23T18:03:44.106Z,16.00
2017-09-23T18:06:11.621Z,15.90
2017-09-23T18:08:39.108Z,15.80
2017-09-23T18:11:06.616Z,15.80
2017-09-23T18:13:34.105Z,15.70
2017-09-23T18:16:02.377Z,15.60
2017-09-23T18:18:29.873Z,15.50
2017-09-23T18:20:57.390Z,15.60
2017-09-23T18:23:24.922Z,15.60
2017-09-23T18:25:52.425Z,15.60
2017-09-23T18:28:20.007Z,15.60
2017-09-23T18:30:47.537Z,15.60
2017-09-23T18:33:15.101Z,15.60
2017-09-23T18:35:42.641Z,15.50
2017-09-23T18:38:10.149Z,15.40
2017-09-23T18:40:38.414Z,15.40
2017-09-23T18:43:06.693Z,15.30
2017-09-23T18:45:34.191Z,15.30
2017-09-23T18:48:01.701Z,15.30
2017-09-23T18:50:29.193Z,15.20
2017-09-23T18:52:56.772Z,15.20
2017-09-23T18:55:24.317Z,15.20
2017-09-23T18:57:51.825Z,15.10
2017-09-23T19:00:19.323Z,15.00
2017-09-23T19:02:46.846Z,15.00
2017-09-23T19:05:14.345Z,14.90
2017-09-23T19:07:41.854Z,14.90
2017-09-23T19:10:09.379Z,14.90
2017-09-23T19:12:36.885Z,14.90
2017-09-23T19:15:05.157Z,14.70
2017-09-23T19:17:32.734Z,14.70
2017-09-23T19:20:00.241Z,14.60
2017-09-23T19:22:28.497Z,14.40
2017-09-23T19:24:56.005Z,14.40
2017-09-23T19:27:23.497Z,14.30
2017-09-23T19:29:51.777Z,14.10
2017-09-23T19:32:19.321Z,14.00
2017-09-23T19:34:46.878Z,14.00
2017-09-23T19:37:14.517Z,13.90
2017-09-23T19:39:42.063Z,13.80
2017-09-23T19:42:09.570Z,13.70
2017-09-23T19:44:37.105Z,13.60
2017-09-23T19:47:04.606Z,13.60
2017-09-23T19:49:32.105Z,13.50
2017-09-23T19:51:59.622Z,13.40
2017-09-23T19:54:27.150Z,13.40
2017-09-23T19:56:54.697Z,13.20
2017-09-23T19:59:22.197Z,13.30
2017-09-23T20:01:49.714Z,13.20
2017-09-23T20:04:17.216Z,13.10
2017-09-23T20:06:44.868Z,13.10
2017-09-23T20:09:12.362Z,13.00
2017-09-23T20:11:40.638Z,13.00
2017-09-23T20:14:08.899Z,12.90
2017-09-23T20:16:36.479Z,12.80
2017-09-23T20:19:03.979Z,12.80
2017-09-23T20:21:31.493Z,12.70
2017-09-23T20:23:58.981Z,12.70
2017-09-23T20:26:27.274Z,12.50
2017-09-23T20:28:54.765Z,12.50
2017-09-23T20:31:23.761Z,12.50
2017-09-23T20:33:52.049Z,12.50
2017-09-23T20:36:19.588Z,12.40
2017-09-23T20:38:47.099Z,12.40
2017-09-23T20:41:14.598Z,12.40
2017-09-23T20:43:42.104Z,12.40
2017-09-23T20:46:09.597Z,12.40
2017-09-23T20:48:37.116Z,12.40
2017-09-23T20:51:05.373Z,12.40
2017-09-23T20:53:32.889Z,12.40
2017-09-23T20:56:00.377Z,12.40
2017-09-23T20:58:27.910Z,12.30
2017-09-23T21:00:56.193Z,12.20
2017-09-23T21:03:23.920Z,12.20
2017-09-23T21:05:51.432Z,12.10
2017-09-23T21:08:18.922Z,12.10
2017-09-23T21:10:46.431Z,12.10
2017-09-23T21:13:14.694Z,12.00
2017-09-23T21:15:42.976Z,12.00
2017-09-23T21:18:10.473Z,12.00
2017-09-23T21:20:37.996Z,12.00
2017-09-23T21:23:05.501Z,12.00
2017-09-23T21:25:33.060Z,12.00
2017-09-23T21:28:00.557Z,11.90
2017-09-23T21:30:28.077Z,11.90
2017-09-23T21:32:55.568Z,11.90
2017-09-23T21:35:23.946Z,11.80
2017-09-23T21:37:51.446Z,11.80
2017-09-23T21:40:19.733Z,11.80
2017-09-23T21:42:48.033Z,11.70
2017-09-23T21:45:15.533Z,11.70
2017-09-23T21:47:43.042Z,11.80
2017-09-23T21:50:10.530Z,11.80
2017-09-23T21:52:38.810Z,11.70
2017-09-23T21:55:06.313Z,11.70
2017-09-23T21:57:33.909Z,11.70
2017-09-23T22:00:01.402Z,11.70
2017-09-23T22:02:29.677Z,11.70
2017-09-23T22:04:57.970Z,11.60
2017-09-23T22:07:25.485Z,11.60
2017-09-23T22:09:53.769Z,11.50
2017-09-23T22:12:21.285Z,11.50
2017-09-23T22:14:49.543Z,11.40
2017-09-23T22:17:17.822Z,11.40
2017-09-23T22:19:46.104Z,11.30
2017-09-23T22:22:13.594Z,11.30
2017-09-23T22:24:41.097Z,11.40
2017-09-23T22:27:08.594Z,11.30
2017-09-23T22:29:36.166Z,11.30
2017-09-23T22:32:03.678Z,11.30
2017-09-23T22:34:31.264Z,11.20
2017-09-23T22:36:58.757Z,11.20
2017-09-23T22:39:26.277Z,11.20
2017-09-23T22:41:53.773Z,11.10
2017-09-23T22:44:22.036Z,11.10
2017-09-23T22:46:50.311Z,11.10
2017-09-23T22:49:17.805Z,11.10
2017-09-23T22:51:45.318Z,11.20
2017-09-23T22:54:12.814Z,11.10
2017-09-23T22:56:41.102Z,11.10
2017-09-23T22:59:08.593Z,11.00
2017-09-23T23:01:36.105Z,11.00
2017-09-23T23:04:03.638Z,11.00
2017-09-23T23:06:31.153Z,11.00
2017-09-23T23:08:58.646Z,11.00
2017-09-23T23:11:26.200Z,10.90
2017-09-23T23:13:53.693Z,10.90
2017-09-23T23:16:21.185Z,10.80
2017-09-23T23:18:48.773Z,10.90
2017-09-23T23:21:16.269Z,10.80
2017-09-23T23:23:43.788Z,10.80
2017-09-23T23:26:11.292Z,10.80
2017-09-23T23:28:39.569Z,10.80
2017-09-23T23:31:07.114Z,10.80
2017-09-23T23:33:34.637Z,10.80
2017-09-23T23:36:02.897Z,10.70
2017-09-23T23:38:31.173Z,10.70
2017-09-23T23:40:58.673Z,10.70
2017-09-23T23:43:26.181Z,10.70
2017-09-23T23:45:53.676Z,10.70
2017-09-23T23:48:21.946Z,10.60
2017-09-23T23:50:50.201Z,10.50
2017-09-23T23:53:18.481Z,10.50
2017-09-23T23:55:46.033Z,10.50
2017-09-23T23:58:13.530Z,10.50
